sensor_id;sensor_type;location;lat;lon;timestamp;temperature;humidity
25332;DHT22;13284;52.748;13.452;2023-02-01T00:01:10;4.00;99.90
25332;DHT22;13284;52.748;13.452;2023-02-01T00:03:36;4.10;99.90
25332;DHT22;13284;52.748;13.452;2023-02-01T00:06:02;4.10;99.90
25332;DHT22;13284;52.748;13.452;2023-02-01T00:08:28;4.10;99.90
25332;DHT22;13284;52.748;13.452;2023-02-01T00:11:00;4.10;99.90
25332;DHT22;13284;52.748;13.452;2023-02-01T00:13:28;4.00;99.90
25332;DHT22;13284;52.748;13.452;2023-02-01T00:15:55;4.00;99.90
25332;DHT22;13284;52.748;13.452;2023-02-01T00:18:26;4.10;99.90
25332;DHT22;13284;52.748;13.452;2023-02-01T00:20:52;4.10;99.90
25332;DHT22;13284;52.748;13.452;2023-02-01T00:23:17;4.10;99.90
25332;DHT22;13284;52.748;13.452;2023-02-01T00:25:43;4.10;99.90
25332;DHT22;13284;52.748;13.452;2023-02-01T00:28:08;4.10;99.90
25332;DHT22;13284;52.748;13.452;2023-02-01T00:30:34;4.10;99.90
25332;DHT22;13284;52.748;13.452;2023-02-01T00:33:00;4.10;99.90
25332;DHT22;13284;52.748;13.452;2023-02-01T00:35:25;4.00;99.90
25332;DHT22;13284;52.748;13.452;2023-02-01T00:37:50;4.00;99.90
25332;DHT22;13284;52.748;13.452;2023-02-01T00:40:16;4.00;99.90
25332;DHT22;13284;52.748;13.452;2023-02-01T00:42:42;4.00;99.90
25332;DHT22;13284;52.748;13.452;2023-02-01T00:45:08;4.00;99.90
25332;DHT22;13284;52.748;13.452;2023-02-01T00:47:33;4.10;99.90
25332;DHT22;13284;52.748;13.452;2023-02-01T00:49:59;4.10;99.90
25332;DHT22;13284;52.748;13.452;2023-02-01T00:52:24;4.10;99.90
25332;DHT22;13284;52.748;13.452;2023-02-01T00:54:50;4.10;99.90
25332;DHT22;13284;52.748;13.452;2023-02-01T00:57:15;4.20;99.90
25332;DHT22;13284;52.748;13.452;2023-02-01T00:59:40;4.30;99.90
25332;DHT22;13284;52.748;13.452;2023-02-01T01:02:06;4.30;99.90
25332;DHT22;13284;52.748;13.452;2023-02-01T01:04:31;4.40;99.90
25332;DHT22;13284;52.748;13.452;2023-02-01T01:06:57;4.40;99.90
25332;DHT22;13284;52.748;13.452;2023-02-01T01:09:22;4.50;99.90
25332;DHT22;13284;52.748;13.452;2023-02-01T01:11:48;4.50;99.90
25332;DHT22;13284;52.748;13.452;2023-02-01T01:14:13;4.50;99.90
25332;DHT22;13284;52.748;13.452;2023-02-01T01:16:39;4.40;99.90
25332;DHT22;13284;52.748;13.452;2023-02-01T01:19:04;4.30;99.90
25332;DHT22;13284;52.748;13.452;2023-02-01T01:21:31;4.20;99.90
25332;DHT22;13284;52.748;13.452;2023-02-01T01:23:57;4.20;99.90
25332;DHT22;13284;52.748;13.452;2023-02-01T01:26:27;4.20;99.90
25332;DHT22;13284;52.748;13.452;2023-02-01T01:28:55;4.20;99.90
25332;DHT22;13284;52.748;13.452;2023-02-01T01:31:21;4.20;99.90
25332;DHT22;13284;52.748;13.452;2023-02-01T01:33:49;4.10;99.90
25332;DHT22;13284;52.748;13.452;2023-02-01T01:36:14;4.10;99.90
25332;DHT22;13284;52.748;13.452;2023-02-01T01:38:40;4.00;99.90
25332;DHT22;13284;52.748;13.452;2023-02-01T01:41:07;4.10;99.90
25332;DHT22;13284;52.748;13.452;2023-02-01T01:43:51;4.00;99.90
25332;DHT22;13284;52.748;13.452;2023-02-01T01:46:18;4.00;99.90
25332;DHT22;13284;52.748;13.452;2023-02-01T01:48:44;4.00;99.90
25332;DHT22;13284;52.748;13.452;2023-02-01T01:51:13;4.00;99.90
25332;DHT22;13284;52.748;13.452;2023-02-01T01:53:53;4.10;99.90
25332;DHT22;13284;52.748;13.452;2023-02-01T01:56:21;4.10;99.90
25332;DHT22;13284;52.748;13.452;2023-02-01T01:58:47;4.10;99.90
25332;DHT22;13284;52.748;13.452;2023-02-01T02:01:12;4.10;99.90
25332;DHT22;13284;52.748;13.452;2023-02-01T02:03:42;4.10;99.90
25332;DHT22;13284;52.748;13.452;2023-02-01T02:06:16;4.10;99.90
25332;DHT22;13284;52.748;13.452;2023-02-01T02:08:42;4.10;99.90
25332;DHT22;13284;52.748;13.452;2023-02-01T02:11:09;4.10;99.90
25332;DHT22;13284;52.748;13.452;2023-02-01T02:13:48;4.10;99.90
25332;DHT22;13284;52.748;13.452;2023-02-01T02:16:35;4.10;99.90
25332;DHT22;13284;52.748;13.452;2023-02-01T02:22:19;4.10;99.90
25332;DHT22;13284;52.748;13.452;2023-02-01T02:27:28;4.10;99.90
25332;DHT22;13284;52.748;13.452;2023-02-01T02:32:53;4.10;99.90
25332;DHT22;13284;52.748;13.452;2023-02-01T02:35:36;4.20;99.90
25332;DHT22;13284;52.748;13.452;2023-02-01T02:38:31;4.20;99.90
25332;DHT22;13284;52.748;13.452;2023-02-01T02:41:18;4.10;99.90
25332;DHT22;13284;52.748;13.452;2023-02-01T02:44:16;4.20;99.90
25332;DHT22;13284;52.748;13.452;2023-02-01T02:47:31;4.20;99.90
25332;DHT22;13284;52.748;13.452;2023-02-01T02:50:05;4.20;99.90
25332;DHT22;13284;52.748;13.452;2023-02-01T02:53:04;4.20;99.90
25332;DHT22;13284;52.748;13.452;2023-02-01T02:55:54;4.20;99.90
25332;DHT22;13284;52.748;13.452;2023-02-01T02:58:39;4.20;99.90
25332;DHT22;13284;52.748;13.452;2023-02-01T03:01:24;4.10;99.90
25332;DHT22;13284;52.748;13.452;2023-02-01T03:04:08;4.10;99.90
25332;DHT22;13284;52.748;13.452;2023-02-01T03:06:42;4.10;99.90
25332;DHT22;13284;52.748;13.452;2023-02-01T03:09:30;4.10;99.90
25332;DHT22;13284;52.748;13.452;2023-02-01T03:12:00;4.00;99.90
25332;DHT22;13284;52.748;13.452;2023-02-01T03:14:48;4.00;99.90
25332;DHT22;13284;52.748;13.452;2023-02-01T03:17:21;4.00;99.90
25332;DHT22;13284;52.748;13.452;2023-02-01T03:19:51;4.00;99.90
25332;DHT22;13284;52.748;13.452;2023-02-01T03:22:23;4.00;99.90
25332;DHT22;13284;52.748;13.452;2023-02-01T03:25:04;4.00;99.90
25332;DHT22;13284;52.748;13.452;2023-02-01T03:27:35;4.00;99.90
25332;DHT22;13284;52.748;13.452;2023-02-01T03:30:22;4.00;99.90
25332;DHT22;13284;52.748;13.452;2023-02-01T03:32:51;4.00;99.90
25332;DHT22;13284;52.748;13.452;2023-02-01T03:35:36;4.00;99.90
25332;DHT22;13284;52.748;13.452;2023-02-01T03:41:17;4.00;99.90
25332;DHT22;13284;52.748;13.452;2023-02-01T03:44:13;3.90;99.90
25332;DHT22;13284;52.748;13.452;2023-02-01T03:46:49;3.90;99.90
25332;DHT22;13284;52.748;13.452;2023-02-01T03:49:27;3.90;99.90
25332;DHT22;13284;52.748;13.452;2023-02-01T03:51:53;3.90;99.90
25332;DHT22;13284;52.748;13.452;2023-02-01T03:54:20;3.90;99.90
25332;DHT22;13284;52.748;13.452;2023-02-01T03:56:47;4.00;99.90
25332;DHT22;13284;52.748;13.452;2023-02-01T03:59:14;3.90;99.90
25332;DHT22;13284;52.748;13.452;2023-02-01T04:01:39;3.90;99.90
25332;DHT22;13284;52.748;13.452;2023-02-01T04:04:05;4.00;99.90
25332;DHT22;13284;52.748;13.452;2023-02-01T04:06:31;4.00;99.90
25332;DHT22;13284;52.748;13.452;2023-02-01T04:08:57;4.00;99.90
25332;DHT22;13284;52.748;13.452;2023-02-01T04:11:22;4.00;99.90
25332;DHT22;13284;52.748;13.452;2023-02-01T04:13:48;4.10;99.90
25332;DHT22;13284;52.748;13.452;2023-02-01T04:16:13;4.10;99.90
25332;DHT22;13284;52.748;13.452;2023-02-01T04:18:39;4.10;99.90
25332;DHT22;13284;52.748;13.452;2023-02-01T04:21:05;4.10;99.90
25332;DHT22;13284;52.748;13.452;2023-02-01T04:23:30;4.10;99.90
25332;DHT22;13284;52.748;13.452;2023-02-01T04:26:01;4.10;99.90
25332;DHT22;13284;52.748;13.452;2023-02-01T04:28:28;4.10;99.90
25332;DHT22;13284;52.748;13.452;2023-02-01T04:30:53;4.20;99.90
25332;DHT22;13284;52.748;13.452;2023-02-01T04:33:19;4.20;99.90
25332;DHT22;13284;52.748;13.452;2023-02-01T04:35:44;4.20;99.90
25332;DHT22;13284;52.748;13.452;2023-02-01T04:38:10;4.20;99.90
25332;DHT22;13284;52.748;13.452;2023-02-01T04:40:35;4.20;99.90
25332;DHT22;13284;52.748;13.452;2023-02-01T04:43:03;4.20;99.90
25332;DHT22;13284;52.748;13.452;2023-02-01T04:45:29;4.30;99.90
25332;DHT22;13284;52.748;13.452;2023-02-01T04:47:54;4.30;99.90
25332;DHT22;13284;52.748;13.452;2023-02-01T04:50:20;4.30;99.90
25332;DHT22;13284;52.748;13.452;2023-02-01T04:52:45;4.30;99.90
25332;DHT22;13284;52.748;13.452;2023-02-01T04:55:12;4.30;99.90
25332;DHT22;13284;52.748;13.452;2023-02-01T04:57:39;4.40;99.90
25332;DHT22;13284;52.748;13.452;2023-02-01T05:00:06;4.40;99.90
25332;DHT22;13284;52.748;13.452;2023-02-01T05:02:31;4.50;99.90
25332;DHT22;13284;52.748;13.452;2023-02-01T05:04:57;4.50;99.90
25332;DHT22;13284;52.748;13.452;2023-02-01T05:07:23;4.50;99.90
25332;DHT22;13284;52.748;13.452;2023-02-01T05:09:48;4.60;99.90
25332;DHT22;13284;52.748;13.452;2023-02-01T05:12:14;4.60;99.90
25332;DHT22;13284;52.748;13.452;2023-02-01T05:14:58;4.50;99.90
25332;DHT22;13284;52.748;13.452;2023-02-01T05:17:23;4.50;99.90
25332;DHT22;13284;52.748;13.452;2023-02-01T05:19:48;4.50;99.90
25332;DHT22;13284;52.748;13.452;2023-02-01T05:22:14;4.50;99.90
25332;DHT22;13284;52.748;13.452;2023-02-01T05:24:39;4.50;99.90
25332;DHT22;13284;52.748;13.452;2023-02-01T05:27:05;4.50;99.90
25332;DHT22;13284;52.748;13.452;2023-02-01T05:29:30;4.50;99.90
25332;DHT22;13284;52.748;13.452;2023-02-01T05:31:56;4.60;99.90
25332;DHT22;13284;52.748;13.452;2023-02-01T05:34:21;4.60;99.90
25332;DHT22;13284;52.748;13.452;2023-02-01T05:36:47;4.70;99.90
25332;DHT22;13284;52.748;13.452;2023-02-01T05:39:12;4.70;99.90
25332;DHT22;13284;52.748;13.452;2023-02-01T05:41:38;4.70;99.90
25332;DHT22;13284;52.748;13.452;2023-02-01T05:44:03;4.70;99.90
25332;DHT22;13284;52.748;13.452;2023-02-01T05:46:29;4.70;99.90
25332;DHT22;13284;52.748;13.452;2023-02-01T05:48:54;4.80;99.90
25332;DHT22;13284;52.748;13.452;2023-02-01T05:51:20;4.80;99.90
25332;DHT22;13284;52.748;13.452;2023-02-01T05:53:45;4.80;99.90
25332;DHT22;13284;52.748;13.452;2023-02-01T05:56:11;4.90;99.90
25332;DHT22;13284;52.748;13.452;2023-02-01T05:58:36;4.90;99.90
25332;DHT22;13284;52.748;13.452;2023-02-01T06:01:03;4.90;99.90
25332;DHT22;13284;52.748;13.452;2023-02-01T06:03:29;4.90;99.90
25332;DHT22;13284;52.748;13.452;2023-02-01T06:05:55;4.90;99.90
25332;DHT22;13284;52.748;13.452;2023-02-01T06:08:20;4.90;99.90
25332;DHT22;13284;52.748;13.452;2023-02-01T06:10:46;4.90;99.90
25332;DHT22;13284;52.748;13.452;2023-02-01T06:13:11;4.80;99.90
25332;DHT22;13284;52.748;13.452;2023-02-01T06:15:37;4.70;99.90
25332;DHT22;13284;52.748;13.452;2023-02-01T06:18:03;4.70;99.90
25332;DHT22;13284;52.748;13.452;2023-02-01T06:20:28;4.70;99.90
25332;DHT22;13284;52.748;13.452;2023-02-01T06:22:54;4.60;99.90
25332;DHT22;13284;52.748;13.452;2023-02-01T06:25:19;4.60;99.90
25332;DHT22;13284;52.748;13.452;2023-02-01T06:27:46;4.50;99.90
25332;DHT22;13284;52.748;13.452;2023-02-01T06:30:11;4.50;99.90
25332;DHT22;13284;52.748;13.452;2023-02-01T06:32:41;4.40;99.90
25332;DHT22;13284;52.748;13.452;2023-02-01T06:35:08;4.40;99.90
25332;DHT22;13284;52.748;13.452;2023-02-01T06:37:37;4.40;99.90
25332;DHT22;13284;52.748;13.452;2023-02-01T06:40:03;4.30;99.90
25332;DHT22;13284;52.748;13.452;2023-02-01T06:42:29;4.30;99.90
25332;DHT22;13284;52.748;13.452;2023-02-01T06:44:54;4.30;99.90
25332;DHT22;13284;52.748;13.452;2023-02-01T06:47:20;4.20;99.90
25332;DHT22;13284;52.748;13.452;2023-02-01T06:49:45;4.20;99.90
25332;DHT22;13284;52.748;13.452;2023-02-01T06:52:11;4.20;99.90
25332;DHT22;13284;52.748;13.452;2023-02-01T06:54:36;4.20;99.90
25332;DHT22;13284;52.748;13.452;2023-02-01T06:57:03;4.20;99.90
25332;DHT22;13284;52.748;13.452;2023-02-01T06:59:28;4.20;99.90
25332;DHT22;13284;52.748;13.452;2023-02-01T07:01:53;4.20;99.90
25332;DHT22;13284;52.748;13.452;2023-02-01T07:04:19;4.20;99.90
25332;DHT22;13284;52.748;13.452;2023-02-01T07:06:44;4.20;99.90
25332;DHT22;13284;52.748;13.452;2023-02-01T07:09:10;4.20;99.90
25332;DHT22;13284;52.748;13.452;2023-02-01T07:11:37;4.20;99.90
25332;DHT22;13284;52.748;13.452;2023-02-01T07:14:06;4.20;99.90
25332;DHT22;13284;52.748;13.452;2023-02-01T07:16:31;4.20;99.90
25332;DHT22;13284;52.748;13.452;2023-02-01T07:18:57;4.20;99.90
25332;DHT22;13284;52.748;13.452;2023-02-01T07:21:22;4.20;99.90
25332;DHT22;13284;52.748;13.452;2023-02-01T07:23:48;4.20;99.90
25332;DHT22;13284;52.748;13.452;2023-02-01T07:26:14;4.20;99.90
25332;DHT22;13284;52.748;13.452;2023-02-01T07:28:40;4.20;99.90
25332;DHT22;13284;52.748;13.452;2023-02-01T07:31:08;4.30;99.90
25332;DHT22;13284;52.748;13.452;2023-02-01T07:33:34;4.30;99.90
25332;DHT22;13284;52.748;13.452;2023-02-01T07:36:04;4.30;99.90
25332;DHT22;13284;52.748;13.452;2023-02-01T07:38:30;4.30;99.90
25332;DHT22;13284;52.748;13.452;2023-02-01T07:41:00;4.30;99.90
25332;DHT22;13284;52.748;13.452;2023-02-01T07:43:27;4.30;99.90
25332;DHT22;13284;52.748;13.452;2023-02-01T07:45:53;4.30;99.90
25332;DHT22;13284;52.748;13.452;2023-02-01T07:48:20;4.20;99.90
25332;DHT22;13284;52.748;13.452;2023-02-01T07:50:46;4.20;99.90
25332;DHT22;13284;52.748;13.452;2023-02-01T07:53:11;4.20;99.90
25332;DHT22;13284;52.748;13.452;2023-02-01T07:55:38;4.20;99.90
25332;DHT22;13284;52.748;13.452;2023-02-01T07:58:04;4.20;99.90
25332;DHT22;13284;52.748;13.452;2023-02-01T08:00:30;4.10;99.90
25332;DHT22;13284;52.748;13.452;2023-02-01T08:03:14;4.10;99.90
25332;DHT22;13284;52.748;13.452;2023-02-01T08:05:40;4.10;99.90
25332;DHT22;13284;52.748;13.452;2023-02-01T08:08:06;4.10;99.90
25332;DHT22;13284;52.748;13.452;2023-02-01T08:10:31;4.10;99.90
25332;DHT22;13284;52.748;13.452;2023-02-01T08:13:00;4.10;99.90
25332;DHT22;13284;52.748;13.452;2023-02-01T08:15:27;4.10;99.90
25332;DHT22;13284;52.748;13.452;2023-02-01T08:17:53;4.00;99.90
25332;DHT22;13284;52.748;13.452;2023-02-01T08:20:20;4.00;99.90
25332;DHT22;13284;52.748;13.452;2023-02-01T08:22:53;4.00;99.90
25332;DHT22;13284;52.748;13.452;2023-02-01T08:25:19;4.00;99.90
25332;DHT22;13284;52.748;13.452;2023-02-01T08:27:45;4.00;99.90
25332;DHT22;13284;52.748;13.452;2023-02-01T08:30:11;4.00;99.90
25332;DHT22;13284;52.748;13.452;2023-02-01T08:32:36;4.00;99.90
25332;DHT22;13284;52.748;13.452;2023-02-01T08:35:03;3.90;99.90
25332;DHT22;13284;52.748;13.452;2023-02-01T08:37:29;3.80;99.90
25332;DHT22;13284;52.748;13.452;2023-02-01T08:39:54;3.80;99.90
25332;DHT22;13284;52.748;13.452;2023-02-01T08:42:20;3.70;99.90
25332;DHT22;13284;52.748;13.452;2023-02-01T08:45:04;3.70;99.90
25332;DHT22;13284;52.748;13.452;2023-02-01T08:47:30;3.60;99.90
25332;DHT22;13284;52.748;13.452;2023-02-01T08:49:56;3.60;99.90
25332;DHT22;13284;52.748;13.452;2023-02-01T08:52:21;3.60;99.90
25332;DHT22;13284;52.748;13.452;2023-02-01T08:54:47;3.60;99.90
25332;DHT22;13284;52.748;13.452;2023-02-01T08:57:12;3.60;99.90
25332;DHT22;13284;52.748;13.452;2023-02-01T08:59:38;3.60;99.90
25332;DHT22;13284;52.748;13.452;2023-02-01T09:02:04;3.60;99.90
25332;DHT22;13284;52.748;13.452;2023-02-01T09:04:29;3.70;99.90
25332;DHT22;13284;52.748;13.452;2023-02-01T09:06:55;3.60;99.90
25332;DHT22;13284;52.748;13.452;2023-02-01T09:09:21;3.60;99.90
25332;DHT22;13284;52.748;13.452;2023-02-01T09:11:47;3.70;99.90
25332;DHT22;13284;52.748;13.452;2023-02-01T09:14:13;3.70;99.90
25332;DHT22;13284;52.748;13.452;2023-02-01T09:16:38;3.70;99.90
25332;DHT22;13284;52.748;13.452;2023-02-01T09:19:04;3.70;99.90
25332;DHT22;13284;52.748;13.452;2023-02-01T09:21:29;3.70;99.90
25332;DHT22;13284;52.748;13.452;2023-02-01T09:23:55;3.70;99.90
25332;DHT22;13284;52.748;13.452;2023-02-01T09:26:21;3.70;99.90
25332;DHT22;13284;52.748;13.452;2023-02-01T09:28:46;3.80;99.90
25332;DHT22;13284;52.748;13.452;2023-02-01T09:31:12;3.80;99.90
25332;DHT22;13284;52.748;13.452;2023-02-01T09:33:37;3.80;99.90
25332;DHT22;13284;52.748;13.452;2023-02-01T09:36:04;3.90;99.90
25332;DHT22;13284;52.748;13.452;2023-02-01T09:38:31;3.90;99.90
25332;DHT22;13284;52.748;13.452;2023-02-01T09:40:58;3.90;99.90
25332;DHT22;13284;52.748;13.452;2023-02-01T09:43:42;3.90;99.90
25332;DHT22;13284;52.748;13.452;2023-02-01T09:46:32;4.00;99.90
25332;DHT22;13284;52.748;13.452;2023-02-01T09:49:04;4.10;99.90
25332;DHT22;13284;52.748;13.452;2023-02-01T09:51:34;4.10;99.90
25332;DHT22;13284;52.748;13.452;2023-02-01T09:54:11;4.10;99.90
25332;DHT22;13284;52.748;13.452;2023-02-01T09:56:46;4.20;99.90
25332;DHT22;13284;52.748;13.452;2023-02-01T09:59:20;4.30;99.90
25332;DHT22;13284;52.748;13.452;2023-02-01T10:01:48;4.30;99.90
25332;DHT22;13284;52.748;13.452;2023-02-01T10:04:15;4.40;99.90
25332;DHT22;13284;52.748;13.452;2023-02-01T10:06:54;4.40;99.90
25332;DHT22;13284;52.748;13.452;2023-02-01T10:12:43;4.40;99.90
25332;DHT22;13284;52.748;13.452;2023-02-01T10:15:28;4.40;99.90
25332;DHT22;13284;52.748;13.452;2023-02-01T10:18:15;4.50;99.90
25332;DHT22;13284;52.748;13.452;2023-02-01T10:26:22;4.50;99.90
25332;DHT22;13284;52.748;13.452;2023-02-01T10:28:56;4.40;99.90
25332;DHT22;13284;52.748;13.452;2023-02-01T10:31:25;4.40;99.90
25332;DHT22;13284;52.748;13.452;2023-02-01T10:33:56;4.40;99.90
25332;DHT22;13284;52.748;13.452;2023-02-01T10:36:32;4.50;99.90
25332;DHT22;13284;52.748;13.452;2023-02-01T10:39:01;4.60;99.90
25332;DHT22;13284;52.748;13.452;2023-02-01T10:41:34;4.60;99.90
25332;DHT22;13284;52.748;13.452;2023-02-01T10:44:03;4.60;99.90
25332;DHT22;13284;52.748;13.452;2023-02-01T10:46:31;4.60;99.90
25332;DHT22;13284;52.748;13.452;2023-02-01T10:48:58;4.60;99.90
25332;DHT22;13284;52.748;13.452;2023-02-01T10:51:38;4.60;99.90
25332;DHT22;13284;52.748;13.452;2023-02-01T10:54:18;4.70;99.90
25332;DHT22;13284;52.748;13.452;2023-02-01T10:56:46;4.80;99.90
25332;DHT22;13284;52.748;13.452;2023-02-01T10:59:23;4.80;99.90
25332;DHT22;13284;52.748;13.452;2023-02-01T11:01:50;5.10;99.90
25332;DHT22;13284;52.748;13.452;2023-02-01T11:04:24;5.20;99.90
25332;DHT22;13284;52.748;13.452;2023-02-01T11:06:53;5.20;99.90
25332;DHT22;13284;52.748;13.452;2023-02-01T11:09:29;5.40;99.90
25332;DHT22;13284;52.748;13.452;2023-02-01T11:11:58;5.50;99.90
25332;DHT22;13284;52.748;13.452;2023-02-01T11:19:20;5.40;99.90
25332;DHT22;13284;52.748;13.452;2023-02-01T11:21:54;5.40;99.90
25332;DHT22;13284;52.748;13.452;2023-02-01T11:24:35;5.30;99.90
25332;DHT22;13284;52.748;13.452;2023-02-01T11:27:03;5.30;99.90
25332;DHT22;13284;52.748;13.452;2023-02-01T11:29:37;5.30;99.90
25332;DHT22;13284;52.748;13.452;2023-02-01T11:32:03;5.30;99.90
25332;DHT22;13284;52.748;13.452;2023-02-01T11:37:01;5.30;99.90
25332;DHT22;13284;52.748;13.452;2023-02-01T11:39:33;5.40;99.90
25332;DHT22;13284;52.748;13.452;2023-02-01T11:42:17;5.40;99.90
25332;DHT22;13284;52.748;13.452;2023-02-01T11:44:44;5.40;99.90
25332;DHT22;13284;52.748;13.452;2023-02-01T11:47:29;5.40;99.90
25332;DHT22;13284;52.748;13.452;2023-02-01T11:50:01;5.40;99.90
25332;DHT22;13284;52.748;13.452;2023-02-01T11:53:01;5.40;99.90
25332;DHT22;13284;52.748;13.452;2023-02-01T11:55:38;5.40;99.90
25332;DHT22;13284;52.748;13.452;2023-02-01T11:58:29;5.50;99.90
25332;DHT22;13284;52.748;13.452;2023-02-01T12:01:30;5.60;99.90
25332;DHT22;13284;52.748;13.452;2023-02-01T12:06:47;5.70;99.90
25332;DHT22;13284;52.748;13.452;2023-02-01T12:11:49;6.00;99.90
25332;DHT22;13284;52.748;13.452;2023-02-01T12:17:37;5.90;99.90
25332;DHT22;13284;52.748;13.452;2023-02-01T12:20:23;5.80;99.90
25332;DHT22;13284;52.748;13.452;2023-02-01T12:37:31;5.50;99.90
25332;DHT22;13284;52.748;13.452;2023-02-01T12:40:38;5.40;99.90
25332;DHT22;13284;52.748;13.452;2023-02-01T12:43:53;4.80;99.90
25332;DHT22;13284;52.748;13.452;2023-02-01T12:46:07;4.40;99.90
25332;DHT22;13284;52.748;13.452;2023-02-01T12:48:40;4.40;99.90
25332;DHT22;13284;52.748;13.452;2023-02-01T12:51:12;4.40;99.90
25332;DHT22;13284;52.748;13.452;2023-02-01T12:56:28;4.10;99.90
25332;DHT22;13284;52.748;13.452;2023-02-01T12:58:58;4.10;99.90
25332;DHT22;13284;52.748;13.452;2023-02-01T13:01:35;4.10;99.90
25332;DHT22;13284;52.748;13.452;2023-02-01T13:04:17;4.10;99.90
25332;DHT22;13284;52.748;13.452;2023-02-01T13:07:07;4.10;99.90
25332;DHT22;13284;52.748;13.452;2023-02-01T13:09:44;4.10;99.90
25332;DHT22;13284;52.748;13.452;2023-02-01T13:12:19;4.20;99.90
25332;DHT22;13284;52.748;13.452;2023-02-01T13:14:57;4.20;99.90
25332;DHT22;13284;52.748;13.452;2023-02-01T13:17:26;4.20;99.90
25332;DHT22;13284;52.748;13.452;2023-02-01T13:20:06;4.30;99.90
25332;DHT22;13284;52.748;13.452;2023-02-01T13:22:42;4.40;99.90
25332;DHT22;13284;52.748;13.452;2023-02-01T13:28:00;4.40;99.90
25332;DHT22;13284;52.748;13.452;2023-02-01T13:30:34;4.30;99.90
25332;DHT22;13284;52.748;13.452;2023-02-01T13:33:23;4.30;99.90
25332;DHT22;13284;52.748;13.452;2023-02-01T13:36:15;4.30;99.90
25332;DHT22;13284;52.748;13.452;2023-02-01T13:39:09;4.30;99.90
25332;DHT22;13284;52.748;13.452;2023-02-01T13:42:11;4.30;99.90
25332;DHT22;13284;52.748;13.452;2023-02-01T13:44:48;4.30;99.90
25332;DHT22;13284;52.748;13.452;2023-02-01T13:47:24;4.40;99.90
25332;DHT22;13284;52.748;13.452;2023-02-01T13:49:51;4.40;99.90
25332;DHT22;13284;52.748;13.452;2023-02-01T13:55:03;4.30;99.90
25332;DHT22;13284;52.748;13.452;2023-02-01T13:57:40;4.30;99.90
25332;DHT22;13284;52.748;13.452;2023-02-01T14:00:36;4.40;99.90
25332;DHT22;13284;52.748;13.452;2023-02-01T14:10:48;4.50;99.90
25332;DHT22;13284;52.748;13.452;2023-02-01T14:13:36;4.50;99.90
25332;DHT22;13284;52.748;13.452;2023-02-01T14:21:19;4.50;99.90
25332;DHT22;13284;52.748;13.452;2023-02-01T14:24:01;4.50;99.90
25332;DHT22;13284;52.748;13.452;2023-02-01T14:26:48;4.50;99.90
25332;DHT22;13284;52.748;13.452;2023-02-01T14:32:01;4.60;99.90
25332;DHT22;13284;52.748;13.452;2023-02-01T14:34:35;4.70;99.90
25332;DHT22;13284;52.748;13.452;2023-02-01T14:37:06;4.70;99.90
25332;DHT22;13284;52.748;13.452;2023-02-01T14:42:24;4.90;99.90
25332;DHT22;13284;52.748;13.452;2023-02-01T14:44:52;4.90;99.90
25332;DHT22;13284;52.748;13.452;2023-02-01T14:49:55;4.90;99.90
25332;DHT22;13284;52.748;13.452;2023-02-01T14:52:24;5.00;99.90
25332;DHT22;13284;52.748;13.452;2023-02-01T14:54:56;5.00;99.90
25332;DHT22;13284;52.748;13.452;2023-02-01T14:57:25;5.00;99.90
25332;DHT22;13284;52.748;13.452;2023-02-01T14:59:59;5.00;99.90
25332;DHT22;13284;52.748;13.452;2023-02-01T15:02:30;5.00;99.90
25332;DHT22;13284;52.748;13.452;2023-02-01T15:04:59;5.10;99.90
25332;DHT22;13284;52.748;13.452;2023-02-01T15:07:26;5.10;99.90
25332;DHT22;13284;52.748;13.452;2023-02-01T15:09:54;5.10;99.90
25332;DHT22;13284;52.748;13.452;2023-02-01T15:12:29;5.10;99.90
25332;DHT22;13284;52.748;13.452;2023-02-01T15:17:52;5.10;99.90
25332;DHT22;13284;52.748;13.452;2023-02-01T15:20:24;5.00;99.90
25332;DHT22;13284;52.748;13.452;2023-02-01T15:23:03;5.00;99.90
25332;DHT22;13284;52.748;13.452;2023-02-01T15:25:34;5.00;99.90
25332;DHT22;13284;52.748;13.452;2023-02-01T15:28:02;5.00;99.90
25332;DHT22;13284;52.748;13.452;2023-02-01T15:30:31;5.00;99.90
25332;DHT22;13284;52.748;13.452;2023-02-01T15:35:48;4.80;99.90
25332;DHT22;13284;52.748;13.452;2023-02-01T15:41:16;4.70;99.90
25332;DHT22;13284;52.748;13.452;2023-02-01T15:46:33;4.50;99.90
25332;DHT22;13284;52.748;13.452;2023-02-01T15:49:00;4.50;99.90
25332;DHT22;13284;52.748;13.452;2023-02-01T15:51:29;4.40;99.90
25332;DHT22;13284;52.748;13.452;2023-02-01T15:54:04;4.40;99.90
25332;DHT22;13284;52.748;13.452;2023-02-01T15:56:36;4.40;99.90
25332;DHT22;13284;52.748;13.452;2023-02-01T15:59:06;4.30;99.90
25332;DHT22;13284;52.748;13.452;2023-02-01T16:01:38;4.30;99.90
25332;DHT22;13284;52.748;13.452;2023-02-01T16:04:17;4.20;99.90
25332;DHT22;13284;52.748;13.452;2023-02-01T16:06:54;4.10;99.90
25332;DHT22;13284;52.748;13.452;2023-02-01T16:09:22;4.10;99.90
25332;DHT22;13284;52.748;13.452;2023-02-01T16:12:00;4.00;99.90
25332;DHT22;13284;52.748;13.452;2023-02-01T16:14:26;4.00;99.90
25332;DHT22;13284;52.748;13.452;2023-02-01T16:16:53;4.00;99.90
25332;DHT22;13284;52.748;13.452;2023-02-01T16:19:19;3.90;99.90
25332;DHT22;13284;52.748;13.452;2023-02-01T16:21:46;3.80;99.90
25332;DHT22;13284;52.748;13.452;2023-02-01T16:24:12;3.80;99.90
25332;DHT22;13284;52.748;13.452;2023-02-01T16:26:37;3.70;99.90
25332;DHT22;13284;52.748;13.452;2023-02-01T16:29:04;3.70;99.90
25332;DHT22;13284;52.748;13.452;2023-02-01T16:31:34;3.70;99.90
25332;DHT22;13284;52.748;13.452;2023-02-01T16:34:00;3.60;99.90
25332;DHT22;13284;52.748;13.452;2023-02-01T16:36:26;3.50;99.90
25332;DHT22;13284;52.748;13.452;2023-02-01T16:38:53;3.50;99.90
25332;DHT22;13284;52.748;13.452;2023-02-01T16:41:20;3.50;99.90
25332;DHT22;13284;52.748;13.452;2023-02-01T16:43:49;3.50;99.90
25332;DHT22;13284;52.748;13.452;2023-02-01T16:46:18;3.50;99.90
25332;DHT22;13284;52.748;13.452;2023-02-01T16:48:50;3.40;99.90
25332;DHT22;13284;52.748;13.452;2023-02-01T16:51:17;3.40;99.90
25332;DHT22;13284;52.748;13.452;2023-02-01T16:53:44;3.40;99.90
25332;DHT22;13284;52.748;13.452;2023-02-01T16:56:21;3.40;99.90
25332;DHT22;13284;52.748;13.452;2023-02-01T16:58:47;3.30;99.90
25332;DHT22;13284;52.748;13.452;2023-02-01T17:01:15;3.30;99.90
25332;DHT22;13284;52.748;13.452;2023-02-01T17:03:41;3.30;99.90
25332;DHT22;13284;52.748;13.452;2023-02-01T17:06:12;3.20;99.90
25332;DHT22;13284;52.748;13.452;2023-02-01T17:08:41;3.20;99.90
25332;DHT22;13284;52.748;13.452;2023-02-01T17:11:07;3.20;99.90
25332;DHT22;13284;52.748;13.452;2023-02-01T17:13:34;3.20;99.90
25332;DHT22;13284;52.748;13.452;2023-02-01T17:16:10;3.20;99.90
25332;DHT22;13284;52.748;13.452;2023-02-01T17:18:38;3.20;99.90
25332;DHT22;13284;52.748;13.452;2023-02-01T17:21:04;3.20;99.90
25332;DHT22;13284;52.748;13.452;2023-02-01T17:23:30;3.20;99.90